Time;durP1;ratioP1;P1;durP2;ratioP2;P2;SDS_P1;SDS_P2;PMS_P1;PMS_P2;Temp;Humidity;BMP_temperature;BMP_pressure;BME280_temperature;BME280_humidity;BME280_pressure;Samples;Min_cycle;Max_cycle;Signal;HPM_P1;HPM_P2
2021/11/28 00:00:32;;;;;;;22.55;16.67;;;4.40;99.90;;;;;;5073689;28;20288;-81
2021/11/28 00:03:00;;;;;;;27.50;16.77;;;4.50;99.90;;;;;;5064333;28;20649;-82
2021/11/28 00:05:28;;;;;;;23.67;16.08;;;4.50;99.90;;;;;;5080353;28;20202;-83
2021/11/28 00:08:13;;;;;;;28.65;17.80;;;4.50;99.90;;;;;;5064391;28;20191;-80
2021/11/28 00:10:49;;;;;;;27.60;17.77;;;4.50;99.90;;;;;;5065704;28;20266;-82
2021/11/28 00:13:32;;;;;;;32.80;20.08;;;4.50;99.90;;;;;;5070610;28;20199;-83
2021/11/28 00:16:01;;;;;;;30.05;18.50;;;4.40;99.90;;;;;;5074196;28;20238;-82
2021/11/28 00:18:28;;;;;;;26.75;18.85;;;4.60;99.90;;;;;;5076003;28;20203;-81
2021/11/28 00:20:56;;;;;;;27.90;17.70;;;4.40;99.90;;;;;;5068328;28;20714;-83
2021/11/28 00:23:23;;;;;;;33.65;19.50;;;4.40;99.90;;;;;;5069172;28;20238;-82
2021/11/28 00:25:52;;;;;;;28.63;17.27;;;4.50;99.90;;;;;;5055428;28;20231;-81
2021/11/28 00:28:19;;;;;;;31.27;19.17;;;4.50;99.90;;;;;;5070894;28;20218;-81
2021/11/28 00:30:46;;;;;;;31.85;19.98;;;4.50;99.90;;;;;;5076066;28;20203;-82
2021/11/28 00:33:14;;;;;;;30.70;19.00;;;4.40;99.90;;;;;;5065967;28;20271;-81
2021/11/28 00:35:41;;;;;;;30.33;19.05;;;4.50;99.90;;;;;;5068725;28;20206;-82
2021/11/28 00:38:08;;;;;;;34.13;20.58;;;4.60;99.90;;;;;;5065976;28;20208;-81
2021/11/28 00:40:35;;;;;;;27.58;18.13;;;4.60;99.90;;;;;;5064018;28;20223;-81
2021/11/28 00:43:03;;;;;;;27.70;17.52;;;4.50;99.90;;;;;;5060504;28;20214;-82
2021/11/28 00:45:30;;;;;;;30.65;18.80;;;4.40;99.90;;;;;;5067173;28;20226;-81
2021/11/28 00:47:57;;;;;;;31.33;19.23;;;4.50;99.90;;;;;;5073390;28;20203;-80
2021/11/28 00:50:36;;;;;;;32.08;20.42;;;4.50;99.90;;;;;;5071157;28;20203;-81
2021/11/28 00:53:04;;;;;;;31.85;19.95;;;4.30;99.90;;;;;;5075975;28;20202;-82
2021/11/28 00:55:31;;;;;;;31.08;19.48;;;4.60;99.90;;;;;;5070527;28;20730;-82
2021/11/28 00:57:57;;;;;;;33.42;19.52;;;4.60;99.90;;;;;;5068306;28;20299;-81
2021/11/28 01:00:26;;;;;;;25.95;18.48;;;4.60;99.90;;;;;;5072597;28;20234;-81
2021/11/28 01:02:53;;;;;;;33.00;19.13;;;4.60;99.90;;;;;;5063608;28;20223;-82
2021/11/28 01:05:20;;;;;;;31.30;21.23;;;4.60;99.90;;;;;;5065661;28;20234;-81
2021/11/28 01:07:47;;;;;;;31.73;19.50;;;4.60;99.90;;;;;;5060289;28;20780;-81
2021/11/28 01:10:14;;;;;;;35.45;22.67;;;4.70;99.90;;;;;;5059937;28;20258;-82
2021/11/28 01:12:42;;;;;;;34.75;22.75;;;4.70;99.90;;;;;;5074356;28;20218;-82
2021/11/28 01:15:10;;;;;;;33.05;20.92;;;4.80;99.90;;;;;;5063282;28;20208;-81
2021/11/28 01:17:39;;;;;;;35.22;18.33;;;4.70;99.90;;;;;;5072613;28;20278;-81
2021/11/28 01:20:08;;;;;;;30.65;19.67;;;4.60;99.90;;;;;;5061768;28;20662;-81
2021/11/28 01:22:38;;;;;;;33.22;22.27;;;4.60;99.90;;;;;;5066306;28;20219;-81
2021/11/28 01:25:06;;;;;;;34.78;22.02;;;4.60;99.90;;;;;;5062768;28;20219;-81
2021/11/28 01:27:34;;;;;;;32.67;20.17;;;4.50;99.90;;;;;;5063911;28;20234;-81
2021/11/28 01:30:01;;;;;;;33.90;20.33;;;4.60;99.90;;;;;;5075441;28;20306;-80
2021/11/28 01:32:28;;;;;;;36.17;22.35;;;4.60;99.90;;;;;;5054567;28;20688;-81
2021/11/28 01:34:57;;;;;;;41.97;24.02;;;4.70;99.90;;;;;;5066492;28;20198;-81
2021/11/28 01:37:23;;;;;;;36.22;21.58;;;4.60;99.90;;;;;;5066100;28;20196;-81
2021/11/28 01:39:50;;;;;;;47.25;24.17;;;4.60;99.90;;;;;;5062392;28;20262;-81
2021/11/28 01:42:36;;;;;;;40.17;22.00;;;4.50;99.90;;;;;;5065264;28;20234;-81
2021/11/28 01:45:03;;;;;;;45.30;24.17;;;4.30;99.90;;;;;;5066601;28;20231;-81
2021/11/28 01:47:31;;;;;;;40.08;24.20;;;4.50;99.90;;;;;;5063973;28;20637;-81
2021/11/28 01:50:00;;;;;;;39.10;23.33;;;4.50;99.90;;;;;;5059751;28;20668;-81
2021/11/28 01:52:27;;;;;;;38.22;24.10;;;4.50;99.90;;;;;;5067903;28;20287;-81
2021/11/28 01:54:55;;;;;;;43.85;24.10;;;4.60;99.90;;;;;;5071417;28;20187;-81
2021/11/28 01:57:22;;;;;;;37.60;22.77;;;4.50;99.90;;;;;;5064296;28;20721;-81
2021/11/28 01:59:48;;;;;;;44.70;24.50;;;4.60;99.90;;;;;;5061623;28;20224;-81
2021/11/28 02:02:23;;;;;;;34.80;22.13;;;4.50;99.90;;;;;;5063721;28;20254;-82
2021/11/28 02:04:52;;;;;;;48.55;28.35;;;4.60;99.90;;;;;;5065062;28;20221;-81
2021/11/28 02:07:20;;;;;;;39.65;23.98;;;4.60;99.90;;;;;;5068087;28;21020;-80
2021/11/28 02:09:48;;;;;;;49.38;28.10;;;4.60;99.90;;;;;;5068666;28;20226;-82
2021/11/28 02:12:15;;;;;;;50.10;23.75;;;4.30;99.90;;;;;;5064599;28;20243;-81
2021/11/28 02:14:46;;;;;;;47.25;26.35;;;4.50;99.90;;;;;;5066814;28;20578;-81
2021/11/28 02:17:14;;;;;;;49.35;29.63;;;4.50;99.90;;;;;;5073308;28;20250;-80
2021/11/28 02:19:43;;;;;;;45.70;25.90;;;4.50;99.90;;;;;;5076482;28;20215;-80
2021/11/28 02:22:16;;;;;;;49.15;26.77;;;4.60;99.90;;;;;;5075986;28;20239;-79
2021/11/28 02:24:43;;;;;;;48.13;25.30;;;4.60;99.90;;;;;;5076641;28;20199;-80
2021/11/28 02:27:16;;;;;;;45.13;24.92;;;4.50;99.90;;;;;;5082474;28;20191;-81
2021/11/28 02:29:44;;;;;;;59.25;31.00;;;4.50;99.90;;;;;;5071335;28;20196;-81
2021/11/28 02:32:12;;;;;;;45.00;26.20;;;4.50;99.90;;;;;;5066639;28;20258;-81
2021/11/28 02:34:42;;;;;;;51.30;27.05;;;4.50;99.90;;;;;;5072041;28;20215;-82
2021/11/28 02:37:14;;;;;;;46.00;27.15;;;4.50;99.90;;;;;;5077993;28;20269;-82
2021/11/28 02:39:41;;;;;;;51.42;27.40;;;4.40;99.90;;;;;;5071732;28;20218;-83
2021/11/28 02:42:09;;;;;;;53.75;29.67;;;4.40;99.90;;;;;;5074242;28;20712;-81
2021/11/28 02:44:36;;;;;;;49.33;26.88;;;4.40;99.90;;;;;;5064875;28;20208;-80
2021/11/28 02:47:03;;;;;;;46.17;28.48;;;4.60;99.90;;;;;;5075157;28;20294;-81
2021/11/28 02:49:34;;;;;;;48.30;25.58;;;4.60;99.90;;;;;;5081614;28;20210;-81
2021/11/28 02:52:01;;;;;;;44.03;25.73;;;4.60;99.90;;;;;;5064718;28;20308;-81
2021/11/28 02:54:29;;;;;;;48.80;25.77;;;4.60;99.90;;;;;;5075444;28;20225;-82
2021/11/28 02:56:56;;;;;;;46.90;26.23;;;4.50;99.90;;;;;;5069763;28;20626;-81
2021/11/28 02:59:23;;;;;;;44.97;24.33;;;4.40;99.90;;;;;;5066626;28;20207;-82
2021/11/28 03:01:52;;;;;;;56.08;28.77;;;4.40;99.90;;;;;;5074900;28;20227;-82
2021/11/28 03:04:19;;;;;;;61.60;32.42;;;4.40;99.90;;;;;;5065923;28;20204;-82
2021/11/28 03:06:46;;;;;;;52.72;26.35;;;4.40;99.90;;;;;;5057616;28;20203;-81
2021/11/28 03:09:13;;;;;;;53.17;27.30;;;4.40;99.90;;;;;;5072273;28;20233;-82
2021/11/28 03:11:42;;;;;;;52.40;29.52;;;4.40;99.90;;;;;;5073892;28;20261;-81
2021/11/28 03:14:09;;;;;;;51.30;26.55;;;4.30;99.90;;;;;;5057943;28;20200;-82
2021/11/28 03:16:36;;;;;;;44.10;26.35;;;4.40;99.90;;;;;;5060572;28;20245;-80
2021/11/28 03:19:04;;;;;;;43.78;25.33;;;4.40;99.90;;;;;;5068103;28;20203;-81
2021/11/28 03:21:38;;;;;;;48.05;25.38;;;4.40;99.90;;;;;;5073583;28;20237;-81
2021/11/28 03:24:06;;;;;;;48.20;26.20;;;4.50;99.90;;;;;;5070789;28;20204;-81
2021/11/28 03:29:20;;;;;;;41.08;23.13;;;4.40;99.90;;;;;;5062398;28;20365;-81
2021/11/28 03:31:50;;;;;;;39.88;24.88;;;4.50;99.90;;;;;;5062270;28;20719;-83
2021/11/28 03:34:18;;;;;;;44.97;24.27;;;4.50;99.90;;;;;;5055447;28;20207;-80
2021/11/28 03:36:49;;;;;;;37.30;22.90;;;4.40;99.90;;;;;;5069579;28;20195;-83
2021/11/28 03:39:19;;;;;;;39.80;22.80;;;4.40;99.90;;;;;;5087063;28;20195;-81
2021/11/28 03:41:49;;;;;;;38.13;24.58;;;4.50;99.90;;;;;;5085728;28;20215;-81
2021/11/28 03:44:18;;;;;;;38.00;23.30;;;4.50;99.90;;;;;;5077655;28;20187;-80
2021/11/28 03:46:45;;;;;;;42.05;24.42;;;4.60;99.90;;;;;;5079406;28;20192;-80
2021/11/28 03:49:12;;;;;;;35.25;21.60;;;4.60;99.90;;;;;;5079543;28;20194;-80
2021/11/28 03:51:39;;;;;;;35.00;21.17;;;4.50;99.90;;;;;;5079192;28;20389;-80
2021/11/28 03:54:07;;;;;;;41.10;23.17;;;4.50;99.90;;;;;;5079422;28;20188;-81
2021/11/28 03:56:37;;;;;;;40.63;22.80;;;4.50;99.90;;;;;;5081209;28;20183;-81
2021/11/28 03:59:06;;;;;;;43.75;25.35;;;4.60;99.90;;;;;;5092819;28;20196;-80
2021/11/28 04:01:43;;;;;;;36.65;24.02;;;4.50;99.90;;;;;;5069086;28;20223;-81
2021/11/28 04:04:12;;;;;;;42.58;22.98;;;4.60;99.90;;;;;;5070222;28;20203;-80
2021/11/28 04:06:44;;;;;;;47.50;26.63;;;4.50;99.90;;;;;;5072437;28;20207;-80
2021/11/28 04:09:12;;;;;;;41.13;25.65;;;4.50;99.90;;;;;;5074626;28;20200;-80
2021/11/28 04:11:39;;;;;;;42.55;21.25;;;4.60;99.90;;;;;;5070404;28;20223;-80
2021/11/28 04:14:06;;;;;;;41.42;22.45;;;4.60;99.90;;;;;;5071743;28;20219;-80
2021/11/28 04:16:33;;;;;;;40.42;22.60;;;4.50;99.90;;;;;;5062938;28;20215;-80
2021/11/28 04:19:02;;;;;;;34.08;20.58;;;4.40;99.90;;;;;;5068782;28;20211;-79
2021/11/28 04:21:30;;;;;;;33.40;20.95;;;4.50;99.90;;;;;;5063528;28;20299;-81
2021/11/28 04:23:57;;;;;;;33.55;20.05;;;4.60;99.90;;;;;;5066878;28;20278;-79
2021/11/28 04:26:24;;;;;;;34.25;22.27;;;4.50;99.90;;;;;;5075736;28;20191;-80
2021/11/28 04:28:51;;;;;;;39.08;20.05;;;4.60;99.90;;;;;;5077386;28;20188;-80
2021/11/28 04:31:18;;;;;;;36.40;20.58;;;4.50;99.90;;;;;;5080140;28;20234;-80
2021/11/28 04:33:44;;;;;;;29.55;20.65;;;4.40;99.90;;;;;;5077608;28;20194;-80
2021/11/28 04:36:13;;;;;;;31.42;20.60;;;4.50;99.90;;;;;;5077945;28;20210;-81
2021/11/28 04:38:40;;;;;;;39.47;22.90;;;4.50;99.90;;;;;;5077819;28;20187;-81
2021/11/28 04:41:07;;;;;;;35.03;21.88;;;4.60;99.90;;;;;;5077486;28;20290;-81
2021/11/28 04:43:33;;;;;;;32.22;20.17;;;4.60;99.90;;;;;;5076764;28;20271;-81
2021/11/28 04:46:00;;;;;;;36.05;23.48;;;4.50;99.90;;;;;;5061503;28;20549;-80
2021/11/28 04:48:27;;;;;;;36.30;22.83;;;4.60;99.90;;;;;;5052119;28;20203;-81
2021/11/28 04:50:54;;;;;;;37.45;22.75;;;4.40;99.90;;;;;;5078004;28;20219;-81
2021/11/28 04:53:23;;;;;;;31.95;20.50;;;4.50;99.90;;;;;;5080787;28;20226;-80
2021/11/28 04:55:50;;;;;;;32.58;20.08;;;4.50;99.90;;;;;;5083047;28;20203;-80
2021/11/28 04:58:18;;;;;;;39.60;21.65;;;4.50;99.90;;;;;;5076609;28;20648;-81
2021/11/28 05:00:44;;;;;;;36.33;20.95;;;4.60;99.90;;;;;;5073759;28;20229;-82
2021/11/28 05:03:11;;;;;;;34.33;18.55;;;4.60;99.90;;;;;;5077775;28;20976;-81
2021/11/28 05:05:39;;;;;;;30.67;19.20;;;4.70;99.90;;;;;;5071481;28;20294;-81
2021/11/28 05:08:06;;;;;;;33.45;19.95;;;4.60;99.90;;;;;;5075410;28;20281;-81
2021/11/28 05:10:35;;;;;;;31.48;19.52;;;4.60;99.90;;;;;;5068326;28;20277;-81
2021/11/28 05:13:02;;;;;;;34.22;22.10;;;4.50;99.90;;;;;;5072434;28;20206;-80
2021/11/28 05:15:29;;;;;;;34.70;19.48;;;4.50;99.90;;;;;;5059000;28;20270;-81
2021/11/28 05:17:56;;;;;;;28.80;17.95;;;4.60;99.90;;;;;;5065267;28;20207;-81
2021/11/28 05:20:23;;;;;;;31.30;19.45;;;4.50;99.90;;;;;;5070553;28;20240;-81
2021/11/28 05:22:52;;;;;;;32.70;20.45;;;4.40;99.90;;;;;;5068529;28;20707;-81
2021/11/28 05:25:20;;;;;;;34.40;21.38;;;4.30;99.90;;;;;;5065883;28;20345;-80
2021/11/28 05:27:49;;;;;;;34.90;20.27;;;4.20;99.90;;;;;;5059321;28;20200;-81
2021/11/28 05:30:17;;;;;;;28.45;18.17;;;4.40;99.90;;;;;;5069311;28;20207;-81
2021/11/28 05:32:44;;;;;;;34.22;20.35;;;4.40;99.90;;;;;;5060279;28;20227;-80
2021/11/28 05:35:17;;;;;;;33.85;21.00;;;4.20;99.90;;;;;;5066061;28;20207;-81
2021/11/28 05:37:45;;;;;;;32.75;21.38;;;4.40;99.90;;;;;;5064335;28;20203;-81
2021/11/28 05:40:14;;;;;;;32.05;19.55;;;4.20;99.90;;;;;;5078509;28;20229;-80
2021/11/28 05:42:45;;;;;;;34.00;21.75;;;4.20;99.90;;;;;;5066372;28;20250;-81
2021/11/28 05:45:14;;;;;;;35.13;22.10;;;4.10;99.90;;;;;;5062490;28;20196;-81
2021/11/28 05:47:41;;;;;;;32.58;19.70;;;4.20;99.90;;;;;;5069964;28;20206;-81
2021/11/28 05:50:10;;;;;;;28.92;18.85;;;4.10;99.90;;;;;;5063443;28;20711;-81
2021/11/28 05:52:38;;;;;;;29.40;18.80;;;4.10;99.90;;;;;;5069088;28;20253;-80
2021/11/28 05:55:06;;;;;;;35.10;21.27;;;4.10;99.90;;;;;;5073985;28;20217;-80
2021/11/28 05:57:33;;;;;;;31.38;20.20;;;4.00;99.90;;;;;;5067963;28;20223;-81
2021/11/28 06:00:01;;;;;;;32.47;20.00;;;4.00;99.90;;;;;;5063569;28;20262;-79
2021/11/28 06:02:29;;;;;;;32.50;20.25;;;3.80;99.90;;;;;;5062135;28;20223;-79
2021/11/28 06:04:56;;;;;;;36.10;20.20;;;4.10;99.90;;;;;;5069639;28;20223;-81
2021/11/28 06:07:23;;;;;;;32.83;22.52;;;4.10;99.90;;;;;;5055998;28;20611;-80
2021/11/28 06:09:51;;;;;;;37.67;22.00;;;4.10;99.90;;;;;;5066805;28;20936;-82
2021/11/28 06:12:18;;;;;;;34.47;22.35;;;4.10;99.90;;;;;;5067402;28;20220;-81
2021/11/28 06:14:45;;;;;;;35.47;20.38;;;4.00;99.90;;;;;;5063475;28;20210;-80
2021/11/28 06:17:15;;;;;;;30.85;20.92;;;4.00;99.90;;;;;;5063756;28;20278;-81
2021/11/28 06:19:43;;;;;;;35.97;22.38;;;4.00;99.90;;;;;;5062743;28;20195;-81
2021/11/28 06:22:13;;;;;;;33.90;21.63;;;4.00;99.90;;;;;;5075609;28;20666;-79
2021/11/28 06:24:43;;;;;;;35.95;21.88;;;4.00;99.90;;;;;;5072240;28;20803;-79
2021/11/28 06:27:11;;;;;;;32.88;21.90;;;3.80;99.90;;;;;;5079890;28;20214;-81
2021/11/28 06:29:38;;;;;;;38.70;23.08;;;4.20;99.90;;;;;;5080439;28;20211;-81
2021/11/28 06:32:06;;;;;;;44.55;23.17;;;3.90;99.90;;;;;;5066718;28;20223;-81
2021/11/28 06:34:33;;;;;;;45.55;25.50;;;4.10;99.90;;;;;;5065176;28;20225;-80
2021/11/28 06:37:03;;;;;;;43.70;25.38;;;4.10;99.90;;;;;;5070386;28;20312;-80
2021/11/28 06:39:30;;;;;;;43.72;24.60;;;4.10;99.90;;;;;;5069765;28;20211;-80
2021/11/28 06:42:00;;;;;;;46.15;24.27;;;4.10;99.90;;;;;;5079594;28;20230;-81
2021/11/28 06:44:27;;;;;;;43.95;24.95;;;4.10;99.90;;;;;;5065021;28;20254;-81
2021/11/28 06:46:54;;;;;;;47.33;26.88;;;4.10;99.90;;;;;;5067935;28;20216;-80
2021/11/28 06:49:21;;;;;;;51.00;28.25;;;4.10;99.90;;;;;;5062482;28;20714;-80
2021/11/28 06:51:48;;;;;;;51.05;27.38;;;4.10;99.90;;;;;;5056799;28;20222;-80
2021/11/28 06:54:17;;;;;;;57.42;28.38;;;4.10;99.90;;;;;;5068555;28;20204;-80
2021/11/28 06:56:44;;;;;;;50.72;27.25;;;4.10;99.90;;;;;;5065850;28;20204;-80
2021/11/28 06:59:11;;;;;;;49.00;26.98;;;4.20;99.90;;;;;;5060717;28;20211;-80
2021/11/28 07:01:38;;;;;;;54.50;29.00;;;4.20;99.90;;;;;;5069347;28;20227;-79
2021/11/28 07:04:05;;;;;;;50.67;27.75;;;4.20;99.90;;;;;;5061517;28;20203;-80
2021/11/28 07:06:32;;;;;;;61.22;31.48;;;4.10;99.90;;;;;;5073854;28;20207;-80
2021/11/28 07:08:59;;;;;;;56.03;29.70;;;4.20;99.90;;;;;;5061937;28;20243;-80
2021/11/28 07:11:28;;;;;;;58.10;30.40;;;4.10;99.90;;;;;;5076885;28;20342;-80
2021/11/28 07:13:55;;;;;;;59.33;30.00;;;4.10;99.90;;;;;;5070495;28;20263;-80
2021/11/28 07:16:22;;;;;;;65.25;30.27;;;4.10;99.90;;;;;;5064261;28;20211;-81
2021/11/28 07:18:50;;;;;;;64.68;29.25;;;4.20;99.90;;;;;;5071942;28;20196;-79
2021/11/28 07:21:18;;;;;;;64.40;31.95;;;4.10;99.90;;;;;;5069511;28;20224;-80
2021/11/28 07:23:46;;;;;;;53.88;30.88;;;4.30;99.90;;;;;;5060399;28;20225;-80
2021/11/28 07:26:14;;;;;;;52.63;31.48;;;4.10;99.90;;;;;;5070287;28;20210;-80
2021/11/28 07:28:43;;;;;;;69.85;33.22;;;4.20;99.90;;;;;;5076844;28;20215;-81
2021/11/28 07:31:10;;;;;;;61.85;32.22;;;4.10;99.90;;;;;;5085968;28;20234;-79
2021/11/28 07:33:38;;;;;;;62.40;33.58;;;4.10;99.90;;;;;;5080416;28;20218;-80
2021/11/28 07:36:06;;;;;;;67.78;34.38;;;4.10;99.90;;;;;;5082960;28;20195;-81
2021/11/28 07:38:34;;;;;;;74.60;37.83;;;4.10;99.90;;;;;;5085484;28;20229;-80
2021/11/28 07:41:01;;;;;;;69.75;33.30;;;4.00;99.90;;;;;;5079011;28;20244;-81
2021/11/28 07:43:29;;;;;;;69.72;34.50;;;4.00;99.90;;;;;;5072692;28;20211;-84
2021/11/28 07:45:57;;;;;;;75.85;38.83;;;4.00;99.90;;;;;;5072719;28;20829;-82
2021/11/28 07:48:24;;;;;;;80.45;37.53;;;4.10;99.90;;;;;;5064147;28;20203;-82
2021/11/28 07:50:52;;;;;;;60.05;31.65;;;4.10;99.90;;;;;;5066615;28;20199;-81
2021/11/28 07:53:19;;;;;;;72.55;36.92;;;4.20;99.90;;;;;;5056416;28;20681;-81
2021/11/28 07:55:46;;;;;;;74.10;35.75;;;4.20;99.90;;;;;;5061699;28;20636;-81
2021/11/28 07:58:13;;;;;;;74.97;33.25;;;4.10;99.90;;;;;;5067714;28;20200;-80
2021/11/28 08:00:41;;;;;;;80.80;36.97;;;4.00;99.90;;;;;;5059887;28;20211;-81
2021/11/28 08:03:09;;;;;;;87.78;38.90;;;4.00;99.90;;;;;;5059842;28;20244;-81
2021/11/28 08:05:38;;;;;;;79.90;35.25;;;4.00;99.90;;;;;;5052721;28;20203;-82
2021/11/28 08:08:06;;;;;;;91.55;38.78;;;4.00;99.90;;;;;;5060672;28;20623;-81
2021/11/28 08:10:33;;;;;;;88.97;39.83;;;4.20;99.90;;;;;;5060341;28;20303;-82
2021/11/28 08:13:00;;;;;;;74.57;38.05;;;4.10;99.90;;;;;;5062061;28;20196;-81
2021/11/28 08:15:27;;;;;;;89.90;36.83;;;4.10;99.90;;;;;;5059429;28;20292;-81
2021/11/28 08:17:54;;;;;;;80.80;37.60;;;4.20;99.90;;;;;;5070506;28;20719;-81
2021/11/28 08:20:23;;;;;;;79.95;39.88;;;4.30;99.90;;;;;;5063819;28;20214;-81
2021/11/28 08:22:51;;;;;;;77.55;37.58;;;4.40;99.90;;;;;;5080172;28;20234;-81
2021/11/28 08:25:19;;;;;;;80.25;37.25;;;4.40;99.90;;;;;;5078714;28;20207;-81
2021/11/28 08:27:47;;;;;;;89.57;39.88;;;4.50;99.90;;;;;;5065410;28;20478;-81
2021/11/28 08:30:16;;;;;;;87.63;37.40;;;4.50;99.90;;;;;;5069208;28;20223;-79
2021/11/28 08:32:45;;;;;;;82.05;38.58;;;4.50;99.90;;;;;;5077052;28;20270;-81
2021/11/28 08:35:13;;;;;;;83.50;37.78;;;4.50;99.90;;;;;;5078134;28;20201;-80
2021/11/28 08:37:41;;;;;;;95.72;42.63;;;4.50;99.90;;;;;;5077936;28;20211;-79
2021/11/28 08:40:11;;;;;;;78.85;39.17;;;4.50;99.90;;;;;;5073703;28;20200;-80
2021/11/28 08:42:38;;;;;;;94.20;42.30;;;4.60;99.90;;;;;;5076427;28;20247;-79
2021/11/28 08:45:07;;;;;;;88.57;38.25;;;4.80;99.90;;;;;;5090357;28;20195;-81
2021/11/28 08:47:34;;;;;;;96.93;41.13;;;4.60;99.90;;;;;;5080733;28;20223;-81
2021/11/28 08:50:02;;;;;;;78.22;37.55;;;4.60;99.90;;;;;;5083754;28;20183;-81
2021/11/28 08:52:29;;;;;;;99.90;42.28;;;4.70;99.90;;;;;;5064227;28;20215;-82
2021/11/28 08:54:57;;;;;;;75.20;39.88;;;4.80;99.90;;;;;;5062071;28;20293;-83
2021/11/28 08:57:36;;;;;;;82.03;39.40;;;4.80;99.90;;;;;;5072277;28;20287;-84
2021/11/28 09:00:09;;;;;;;82.50;38.20;;;4.90;99.90;;;;;;5060402;28;20230;-79
2021/11/28 09:02:37;;;;;;;56.08;31.88;;;5.00;99.90;;;;;;5063022;28;20234;-80
2021/11/28 09:05:05;;;;;;;78.80;36.78;;;5.00;99.90;;;;;;5064827;28;20944;-79
2021/11/28 09:07:32;;;;;;;67.43;34.53;;;5.00;99.90;;;;;;5060269;28;20266;-79
2021/11/28 09:10:01;;;;;;;68.53;36.97;;;5.10;99.90;;;;;;5055207;28;20259;-79
2021/11/28 09:12:36;;;;;;;64.13;35.20;;;5.30;99.90;;;;;;5070782;28;20703;-81
2021/11/28 09:15:03;;;;;;;67.88;32.72;;;5.30;99.90;;;;;;5056380;28;20195;-82
2021/11/28 09:17:32;;;;;;;57.08;32.50;;;5.30;99.90;;;;;;5054983;28;20514;-83
2021/11/28 09:20:02;;;;;;;59.97;33.10;;;5.40;99.90;;;;;;5056706;28;20462;-83
2021/11/28 09:25:25;;;;;;;53.85;30.05;;;5.60;99.90;;;;;;5054628;28;20232;-81
2021/11/28 09:27:59;;;;;;;52.95;30.75;;;5.70;99.90;;;;;;5074052;28;20199;-84
2021/11/28 09:30:37;;;;;;;57.78;29.75;;;5.70;99.90;;;;;;5066134;28;20219;-82
2021/11/28 09:33:10;;;;;;;50.60;30.58;;;5.70;99.90;;;;;;5061476;28;20280;-86
2021/11/28 09:36:18;;;;;;;52.55;29.05;;;5.80;99.90;;;;;;5054188;28;20273;-84
2021/11/28 09:38:45;;;;;;;53.42;29.90;;;5.70;99.90;;;;;;5057305;28;20645;-81
2021/11/28 09:41:14;;;;;;;53.55;29.75;;;5.60;99.90;;;;;;5066186;28;20311;-80
2021/11/28 09:44:13;;;;;;;55.17;27.35;;;5.50;99.90;;;;;;5065228;28;20226;-82
2021/11/28 09:46:47;;;;;;;45.63;27.30;;;5.60;99.90;;;;;;5065027;28;20235;-81
2021/11/28 10:22:16;;;;;;;39.38;25.05;;;6.00;99.90;;;;;;4865822;28;20249;-82
2021/11/28 10:24:59;;;;;;;48.10;27.92;;;6.20;99.90;;;;;;4967216;28;20223;-82
2021/11/28 10:27:41;;;;;;;43.78;26.40;;;6.20;99.90;;;;;;4970515;28;20201;-82
2021/11/28 10:30:14;;;;;;;46.05;27.77;;;6.20;99.90;;;;;;5037433;28;20302;-81
2021/11/28 10:53:07;;;;;;;29.05;21.15;;;6.60;99.90;;;;;;5090604;22;20814;-75
2021/11/28 10:55:36;;;;;;;33.30;21.45;;;6.60;99.90;;;;;;5088905;28;20722;-76
2021/11/28 10:58:11;;;;;;;30.33;22.48;;;6.60;99.90;;;;;;5090871;28;20484;-77
2021/11/28 11:00:40;;;;;;;26.27;19.02;;;6.80;99.90;;;;;;5089784;28;20218;-76
2021/11/28 11:03:17;;;;;;;26.27;18.88;;;6.80;99.90;;;;;;5089680;28;20920;-74
2021/11/28 11:05:45;;;;;;;26.35;18.63;;;6.90;99.90;;;;;;5070373;28;20331;-76
2021/11/28 11:08:15;;;;;;;24.80;18.20;;;7.00;99.90;;;;;;5089285;28;20201;-73
2021/11/28 11:10:44;;;;;;;23.55;18.05;;;7.00;99.90;;;;;;5087108;28;20238;-75
2021/11/28 11:13:13;;;;;;;29.05;19.95;;;7.00;99.90;;;;;;5087951;28;20249;-74
2021/11/28 11:15:44;;;;;;;28.40;16.65;;;7.00;99.90;;;;;;5088692;28;20212;-79
2021/11/28 11:18:12;;;;;;;20.58;16.13;;;7.00;99.90;;;;;;5090245;28;20207;-75
2021/11/28 11:20:42;;;;;;;24.02;15.93;;;7.20;99.90;;;;;;5087724;28;20314;-74
2021/11/28 11:23:33;;;;;;;20.85;14.82;;;7.30;99.90;;;;;;5085843;28;20228;-75
2021/11/28 11:26:18;;;;;;;24.27;15.60;;;7.20;99.90;;;;;;5088827;28;21299;-73
2021/11/28 11:29:07;;;;;;;24.05;16.17;;;7.10;99.90;;;;;;5089444;28;20200;-73
2021/11/28 11:31:35;;;;;;;21.20;15.50;;;6.90;99.90;;;;;;5101407;28;20207;-74
2021/11/28 11:34:02;;;;;;;21.88;15.45;;;6.80;99.90;;;;;;5107504;28;20281;-73
2021/11/28 11:36:54;;;;;;;22.90;16.63;;;6.80;99.90;;;;;;5101532;27;20292;-74
2021/11/28 11:39:24;;;;;;;23.35;17.02;;;6.80;99.90;;;;;;5109725;27;20258;-73
2021/11/28 11:41:52;;;;;;;24.58;16.20;;;6.70;99.90;;;;;;5114522;27;20286;-74
2021/11/28 11:44:19;;;;;;;24.65;16.48;;;6.70;99.90;;;;;;5099913;28;20260;-74
2021/11/28 11:46:47;;;;;;;27.20;16.45;;;6.50;99.90;;;;;;5109968;28;20301;-74
2021/11/28 11:49:14;;;;;;;27.52;16.50;;;6.50;99.90;;;;;;5103572;28;20659;-75
2021/11/28 11:51:42;;;;;;;22.65;15.45;;;6.50;99.90;;;;;;5107603;28;20240;-76
2021/11/28 11:54:18;;;;;;;20.50;14.57;;;6.50;99.90;;;;;;5103009;28;20200;-75
2021/11/28 11:56:47;;;;;;;22.17;14.68;;;6.60;99.90;;;;;;5106349;28;20728;-76
2021/11/28 11:59:23;;;;;;;19.80;14.25;;;6.60;99.90;;;;;;5107255;28;20387;-76
2021/11/28 12:02:00;;;;;;;22.38;14.85;;;6.80;99.90;;;;;;5113531;28;20307;-75
2021/11/28 12:04:42;;;;;;;20.25;14.60;;;6.60;99.90;;;;;;5114946;28;20598;-75
2021/11/28 12:07:10;;;;;;;24.42;18.10;;;6.70;99.90;;;;;;5114348;28;20200;-75
2021/11/28 12:09:37;;;;;;;28.13;15.52;;;6.70;99.90;;;;;;5100663;28;20219;-77
2021/11/28 12:12:08;;;;;;;25.88;16.50;;;6.70;99.90;;;;;;5112591;28;20227;-75
2021/11/28 12:14:36;;;;;;;29.08;18.10;;;6.60;99.90;;;;;;5112117;27;20289;-73
2021/11/28 12:17:37;;;;;;;24.83;16.75;;;6.50;99.90;;;;;;5106616;28;20193;-74
2021/11/28 12:20:05;;;;;;;21.70;14.00;;;6.50;99.90;;;;;;5114534;27;20222;-74
2021/11/28 12:22:46;;;;;;;21.48;15.07;;;6.40;99.90;;;;;;5102188;28;20311;-74
2021/11/28 12:25:41;;;;;;;20.77;14.27;;;6.40;99.90;;;;;;5115794;27;20199;-74
2021/11/28 12:28:29;;;;;;;18.67;13.80;;;6.50;99.90;;;;;;5101587;28;20237;-74
2021/11/28 12:30:58;;;;;;;19.98;14.50;;;6.50;99.90;;;;;;5113503;28;20192;-75
2021/11/28 12:34:01;;;;;;;24.25;17.05;;;6.60;99.90;;;;;;5113481;28;20227;-73
2021/11/28 12:36:42;;;;;;;27.67;17.20;;;6.60;99.90;;;;;;5101781;28;20207;-73
2021/11/28 12:39:31;;;;;;;25.77;18.73;;;6.50;99.90;;;;;;5093107;28;20286;-73
2021/11/28 12:42:03;;;;;;;22.50;16.40;;;6.50;99.90;;;;;;5101485;28;20773;-74
2021/11/28 12:44:33;;;;;;;23.15;16.40;;;6.40;99.90;;;;;;5110752;28;20203;-74
2021/11/28 12:47:30;;;;;;;24.20;16.98;;;6.50;99.90;;;;;;5105725;28;20611;-74
2021/11/28 12:50:00;;;;;;;22.83;15.63;;;6.40;99.90;;;;;;5102850;28;20227;-73
2021/11/28 12:52:39;;;;;;;28.83;19.63;;;6.30;99.90;;;;;;5108509;28;20712;-73
2021/11/28 12:55:21;;;;;;;25.67;18.40;;;6.20;99.90;;;;;;5102211;28;20198;-74
2021/11/28 12:58:06;;;;;;;29.75;18.23;;;6.10;99.90;;;;;;5095693;28;20199;-74
2021/11/28 13:00:37;;;;;;;29.30;17.95;;;6.00;99.90;;;;;;5118227;27;20224;-73
2021/11/28 13:03:22;;;;;;;30.08;19.98;;;6.00;99.90;;;;;;5100925;28;20225;-76
2021/11/28 13:05:50;;;;;;;28.77;18.10;;;5.90;99.90;;;;;;5104956;27;20260;-75
2021/11/28 13:08:33;;;;;;;30.80;19.90;;;6.00;99.90;;;;;;5102126;28;20203;-74
2021/11/28 13:11:08;;;;;;;26.00;17.75;;;6.00;99.90;;;;;;5110642;28;20235;-74
2021/11/28 13:13:37;;;;;;;31.52;19.77;;;6.00;99.90;;;;;;5116003;27;20278;-75
2021/11/28 13:16:08;;;;;;;28.38;18.83;;;6.00;99.90;;;;;;5109865;28;20215;-74
2021/11/28 13:18:37;;;;;;;30.50;19.30;;;5.90;99.90;;;;;;5100646;28;20285;-73
2021/11/28 13:21:06;;;;;;;31.88;19.90;;;5.80;99.90;;;;;;5108227;28;20204;-74
2021/11/28 13:23:33;;;;;;;25.05;17.00;;;5.80;99.90;;;;;;5109990;28;20312;-76
2021/11/28 13:26:00;;;;;;;24.63;17.40;;;5.90;99.90;;;;;;5111172;28;20288;-74
2021/11/28 13:28:29;;;;;;;26.00;15.93;;;5.90;99.90;;;;;;5102264;28;20197;-76
2021/11/28 13:30:58;;;;;;;25.17;15.93;;;5.90;99.90;;;;;;5097006;28;20206;-74
2021/11/28 13:33:27;;;;;;;22.50;15.05;;;6.00;99.90;;;;;;5119729;28;20225;-75
2021/11/28 13:35:57;;;;;;;27.80;18.58;;;6.00;99.90;;;;;;5103518;28;20283;-74
2021/11/28 13:38:26;;;;;;;29.30;19.02;;;6.00;99.90;;;;;;5101674;28;20195;-74
2021/11/28 13:41:08;;;;;;;29.42;16.95;;;6.00;99.90;;;;;;5113628;28;20225;-74
2021/11/28 13:43:37;;;;;;;24.40;16.85;;;5.90;99.90;;;;;;5107336;28;20226;-74
2021/11/28 13:46:05;;;;;;;27.13;17.55;;;5.90;99.90;;;;;;5101083;28;20562;-73
2021/11/28 13:48:53;;;;;;;27.88;19.05;;;6.00;99.90;;;;;;5099155;28;20634;-73